TFM - Tactical Decision Aid (Experimental) INFO Settings

ID: Runway Winds: CIG/VIS Threshold: METAR Board: Map:

Kclt - Charlotte-Douglas Intl

Updated at: 2256 UTC 26 Feb 2015
Latest TAF at: 2049 UTC 26 Feb 2015

TAF Board

Time2252Z26/23Z27/00Z27/01Z27/02Z27/03Z27/04Z27/05Z27/06Z27/07Z27/08Z27/09Z27/10Z27/11Z
TypeOBSPRVLPRVLPRVLPRVLPRVLPRVLPRVLPRVLPRVLPRVLPRVLPRVLPRVL
VIS10>6>6>6>6>6>6>6>6>6>6>6>6>6
CIG3622222222212121212121212222
CoverBKNBKNBKNBKNBKNBKNBKNBKNBKNBKNBKNBKNBKNBKN
FltCatVFRMVFRMVFRMVFRMVFRMVFRMVFRMVFRMVFRMVFRMVFRMVFRMVFRMVFR
WX----------------------------
WDirVRB350350350350VRBVRBVRBVRBVRBVRBVRB320320
WSpd04444000000055
WGst----------------------------
TAF
KCLT 262049Z 2621/2718 35004KT P6SM BKN022
  FM270300 00000KT P6SM BKN021
  FM271000 32005KT P6SM BKN022


METAR
KCLT 262252Z 00000KT 10SM SCT020 BKN036 BKN250 04/M02 A3002 RMK AO2 SLP168 T00391017
KCLT 262215Z 00000KT 10SM SCT020 BKN250 04/M02 A3000 RMK AO2
KCLT 262152Z 00000KT 10SM BKN020 BKN250 05/M01 A2999 RMK AO2 SLP160 T00501011

TAF/METAR Board Legend

Potential Impact
  None Marginal Slight Moderate High
Visibility (sm) > ≤X≤ <
Ceiling (100 ft) > ≤X≤ <
Wind Speed (kt) <10 10≤X<20 20≤X<30 ≥30
Wind Gust (kt) <15 15≤X<25 25≤X<35 ≥35
Weather No Wx Reported VCTS -TS,-FZRA TS,FZRA +TS,+FZRA